createdAt,value
2018-01-23T00:00:09.507Z,95886
2018-01-23T00:02:38.468Z,95886
2018-01-23T00:05:07.439Z,95900
2018-01-23T00:07:36.386Z,95907
2018-01-23T00:10:05.371Z,95910
2018-01-23T00:12:34.325Z,95910
2018-01-23T00:15:03.315Z,95922
2018-01-23T00:17:33.170Z,95921
2018-01-23T00:20:02.156Z,95926
2018-01-23T00:22:31.871Z,95928
2018-01-23T00:25:00.843Z,95917
2018-01-23T00:27:30.562Z,95912
2018-01-23T00:30:00.309Z,95927
2018-01-23T00:32:29.255Z,95930
2018-01-23T00:35:01.976Z,95940
2018-01-23T00:37:30.927Z,95924
2018-01-23T00:40:00.678Z,95933
2018-01-23T00:42:29.633Z,95930
2018-01-23T00:45:09.197Z,95952
2018-01-23T00:47:38.151Z,95949
2018-01-23T00:50:07.137Z,95953
2018-01-23T00:52:36.999Z,95933
2018-01-23T00:55:05.964Z,95941
2018-01-23T00:57:35.719Z,95957
2018-01-23T01:00:04.677Z,95958
2018-01-23T01:02:34.404Z,95960
2018-01-23T01:05:03.385Z,95975
2018-01-23T01:07:41.998Z,95965
2018-01-23T01:10:10.969Z,95982
2018-01-23T01:13:04.479Z,95984
2018-01-23T01:15:33.433Z,95977
2018-01-23T01:18:03.178Z,95887
2018-01-23T01:20:40.226Z,95979
2018-01-23T01:23:09.961Z,96006
2018-01-23T01:25:38.919Z,96003
2018-01-23T01:28:20.838Z,96009
2018-01-23T01:30:49.815Z,96018
2018-01-23T01:33:18.789Z,96011
2018-01-23T01:35:47.750Z,96017
2018-01-23T01:38:16.702Z,96029
2018-01-23T01:40:46.430Z,96030
2018-01-23T01:43:15.415Z,96037
2018-01-23T01:45:45.139Z,96039
2018-01-23T01:48:14.074Z,96042
2018-01-23T01:50:43.047Z,96044
2018-01-23T01:53:16.410Z,96047
2018-01-23T01:55:45.398Z,96054
2018-01-23T01:58:14.359Z,96056
2018-01-23T02:01:02.395Z,96064
2018-01-23T02:03:31.338Z,96065
2018-01-23T02:06:00.317Z,96078
2018-01-23T02:08:49.774Z,96078
2018-01-23T02:11:18.747Z,96093
2018-01-23T02:13:47.706Z,96089
2018-01-23T02:16:16.682Z,96087
2018-01-23T02:18:45.629Z,96100
2018-01-23T02:21:15.384Z,96086
2018-01-23T02:23:44.330Z,96097
2018-01-23T02:26:14.061Z,96093
2018-01-23T02:28:55.141Z,96085
2018-01-23T02:31:24.098Z,96096
2018-01-23T02:33:53.056Z,96105
2018-01-23T02:36:22.052Z,96097
2018-01-23T02:38:50.995Z,96098
2018-01-23T02:41:20.711Z,96109
2018-01-23T02:43:49.682Z,96112
2018-01-23T02:46:19.403Z,96114
2018-01-23T02:48:52.939Z,96115
2018-01-23T02:51:21.882Z,96114
2018-01-23T02:53:51.639Z,96115
2018-01-23T02:56:20.609Z,96131
2018-01-23T02:58:50.327Z,96120
2018-01-23T03:01:19.278Z,96129
2018-01-23T03:04:18.756Z,96134
2018-01-23T03:06:47.719Z,96140
2018-01-23T03:09:16.698Z,96139
2018-01-23T03:11:46.413Z,96139
2018-01-23T03:14:15.405Z,96136
2018-01-23T03:16:56.802Z,96148
2018-01-23T03:19:25.782Z,96145
2018-01-23T03:21:54.892Z,96142
2018-01-23T03:27:31.994Z,96142
2018-01-23T03:30:01.556Z,96149
2018-01-23T03:32:30.515Z,96140
2018-01-23T03:34:59.458Z,96139
2018-01-23T03:37:38.907Z,96146
2018-01-23T03:40:07.858Z,96137
2018-01-23T03:42:36.822Z,96157
2018-01-23T03:45:05.796Z,96169
2018-01-23T03:47:34.764Z,96166
2018-01-23T03:50:04.475Z,96175
2018-01-23T03:52:33.442Z,96172
2018-01-23T03:55:02.392Z,96175
2018-01-23T03:57:32.199Z,96178
2018-01-23T04:00:01.135Z,96176
2018-01-23T04:02:30.103Z,96169
2018-01-23T04:04:59.060Z,96165
2018-01-23T04:07:28.028Z,96167
2018-01-23T04:09:57.770Z,96163
2018-01-23T04:12:26.722Z,96161
2018-01-23T04:14:55.673Z,96162
2018-01-23T04:17:24.654Z,96166
2018-01-23T04:19:53.602Z,96167
2018-01-23T04:22:23.336Z,96188
2018-01-23T04:24:52.324Z,96183
2018-01-23T04:27:21.351Z,96187
2018-01-23T04:30:11.842Z,96194
2018-01-23T04:32:40.882Z,96196
2018-01-23T04:35:10.016Z,96193
2018-01-23T04:37:39.019Z,96189
2018-01-23T04:40:08.040Z,96197
2018-01-23T04:42:37.095Z,96206
2018-01-23T04:45:11.083Z,96204
2018-01-23T04:47:40.856Z,96204
2018-01-23T04:50:09.979Z,96214
2018-01-23T04:52:42.090Z,96220
2018-01-23T04:55:11.171Z,96221
2018-01-23T04:57:40.352Z,96218
2018-01-23T05:00:09.401Z,96222
2018-01-23T05:02:38.566Z,96236
2018-01-23T05:05:27.931Z,96237
2018-01-23T05:13:03.227Z,96241
2018-01-23T17:30:59.263Z,96599
2018-01-23T17:33:35.397Z,96593
2018-01-23T17:36:04.397Z,96594
2018-01-23T17:38:44.306Z,96589
2018-01-23T17:41:14.068Z,96574
2018-01-23T17:43:43.085Z,96584
2018-01-23T17:46:12.428Z,96584
2018-01-23T17:48:49.751Z,96579
2018-01-23T17:51:18.817Z,96587
2018-01-23T17:53:47.859Z,96587
2018-01-23T17:56:21.214Z,96588
2018-01-23T17:58:50.258Z,96588
2018-01-23T18:01:19.316Z,96586
2018-01-23T18:03:50.749Z,96588
2018-01-23T18:06:19.976Z,96584
2018-01-23T18:08:51.027Z,96597
2018-01-23T18:11:20.504Z,96587
2018-01-23T18:13:49.528Z,96602
2018-01-23T18:16:22.344Z,96586
2018-01-23T18:18:51.587Z,96595
2018-01-23T18:21:21.339Z,96593
2018-01-23T18:23:58.816Z,96584
2018-01-23T18:26:27.845Z,96587
2018-01-23T18:28:56.950Z,96582
2018-01-23T18:31:26.034Z,96582
2018-01-23T18:33:56.018Z,96585
2018-01-23T18:36:25.117Z,96587
2018-01-23T18:38:54.342Z,96587
2018-01-23T18:41:35.359Z,96585
2018-01-23T18:44:04.411Z,96580
2018-01-23T18:46:33.424Z,96587
2018-01-23T18:49:02.462Z,96581
2018-01-23T18:51:31.467Z,96581
2018-01-23T18:54:01.277Z,96591
2018-01-23T18:56:30.292Z,96592
2018-01-23T18:58:59.371Z,96592
2018-01-23T19:01:29.143Z,96585
2018-01-23T19:04:03.055Z,96581
2018-01-23T19:06:32.061Z,96587
2018-01-23T19:09:01.092Z,96588
2018-01-23T19:11:30.097Z,96578
2018-01-23T19:13:59.144Z,96579
2018-01-23T19:16:30.124Z,96586
2018-01-23T19:18:59.289Z,96584
2018-01-23T19:21:33.840Z,96583
2018-01-23T19:24:06.993Z,96577
2018-01-23T19:26:36.345Z,96574
2018-01-23T19:29:05.816Z,96573
2018-01-23T19:31:35.043Z,96571
2018-01-23T19:34:15.353Z,96565
2018-01-23T19:36:45.102Z,96575
2018-01-23T19:39:14.394Z,96573
2018-01-23T19:41:43.855Z,96577
2018-01-23T19:44:13.854Z,96579
2018-01-23T19:46:42.923Z,96570
2018-01-23T19:49:12.237Z,96579
2018-01-23T19:51:44.375Z,96577
2018-01-23T19:54:14.710Z,96589
2018-01-23T19:56:43.787Z,96581
2018-01-23T19:59:14.367Z,96587
2018-01-23T20:01:43.685Z,96595
2018-01-23T20:04:15.017Z,96591
2018-01-23T20:06:56.520Z,96580
2018-01-23T20:09:25.832Z,96594
2018-01-23T20:12:00.080Z,96601
2018-01-23T20:14:34.481Z,96606
2018-01-23T20:17:08.109Z,96608
2018-01-23T20:19:37.381Z,96597
2018-01-23T20:22:10.541Z,96598
2018-01-23T20:24:58.427Z,96607
2018-01-23T20:27:33.889Z,96610
2018-01-23T20:30:03.365Z,96612
2018-01-23T20:32:34.611Z,96606
2018-01-23T20:35:06.538Z,96601
2018-01-23T20:37:35.789Z,96614
2018-01-23T20:40:05.099Z,96613
2018-01-23T20:42:35.378Z,96591
2018-01-23T20:45:05.780Z,96592
2018-01-23T20:47:35.458Z,96590
2018-01-23T20:50:04.797Z,96590
2018-01-23T20:52:39.027Z,96583
2018-01-23T20:55:08.579Z,96565
2018-01-23T20:57:38.171Z,96564
2018-01-23T21:00:08.103Z,96572
2018-01-23T21:02:41.020Z,96564
2018-01-23T21:05:14.840Z,96564
2018-01-23T21:08:02.817Z,96560
2018-01-23T21:10:31.991Z,96560
2018-01-23T21:13:01.198Z,96547
2018-01-23T21:15:35.430Z,96537
2018-01-23T21:18:04.656Z,96546
2018-01-23T21:20:33.777Z,96558
2018-01-23T21:23:03.862Z,96561
2018-01-23T21:25:39.133Z,96568
2018-01-23T21:28:08.727Z,96560
2018-01-23T21:30:38.168Z,96572
2018-01-23T21:33:09.406Z,96571
2018-01-23T21:35:38.982Z,96571
2018-01-23T21:38:15.825Z,96568
2018-01-23T21:40:45.395Z,96562
2018-01-23T21:43:15.731Z,96574
2018-01-23T21:45:46.449Z,96567
2018-01-23T21:48:17.490Z,96560
2018-01-23T21:50:48.499Z,96558
2018-01-23T21:53:19.293Z,96567
2018-01-23T21:55:48.348Z,96567
2018-01-23T21:58:17.597Z,96577
2018-01-23T22:00:47.188Z,96570
2018-01-23T22:03:18.114Z,96572
2018-01-23T22:05:47.901Z,96575
2018-01-23T22:08:18.212Z,96579
2018-01-23T22:10:48.648Z,96590
2018-01-23T22:13:19.397Z,96603
2018-01-23T22:15:48.401Z,96602
2018-01-23T22:18:18.204Z,96602
2018-01-23T22:20:51.516Z,96606
2018-01-23T22:23:21.617Z,96595
2018-01-23T22:25:54.941Z,96588
2018-01-23T22:28:23.980Z,96583
2018-01-23T22:30:54.886Z,96591
2018-01-23T22:33:24.190Z,96583
2018-01-23T22:35:55.213Z,96578
2018-01-23T22:38:24.229Z,96597
2018-01-23T22:40:53.406Z,96597
2018-01-23T22:43:23.967Z,96591
2018-01-23T22:45:53.202Z,96600
2018-01-23T22:48:22.981Z,96597
2018-01-23T22:50:53.987Z,96588
2018-01-23T22:53:23.004Z,96596
2018-01-23T22:55:52.132Z,96603
2018-01-23T22:58:21.292Z,96594
2018-01-23T23:00:53.119Z,96605
2018-01-23T23:03:22.225Z,96609
2018-01-23T23:05:51.225Z,96607
2018-01-23T23:08:21.936Z,96602
2018-01-23T23:10:54.275Z,96614
2018-01-23T23:13:23.481Z,96727
2018-01-23T23:15:52.484Z,96612
2018-01-23T23:18:21.612Z,96616
2018-01-23T23:20:50.700Z,96622
2018-01-23T23:23:19.912Z,96614
2018-01-23T23:25:48.912Z,96602
2018-01-23T23:28:19.183Z,96608
2018-01-23T23:30:49.000Z,96603
2018-01-23T23:33:18.604Z,96604
2018-01-23T23:35:47.679Z,96588
2018-01-23T23:38:21.324Z,96599
2018-01-23T23:40:50.327Z,96599
2018-01-23T23:43:19.361Z,96602
2018-01-23T23:45:48.362Z,96593
2018-01-23T23:48:21.912Z,96588
2018-01-23T23:50:50.909Z,96598
2018-01-23T23:53:19.908Z,96600
2018-01-23T23:55:48.936Z,96603
2018-01-23T23:58:17.932Z,96603
